sensor_id;sensor_type;location;lat;lon;timestamp;noise_LAeq;noise_LA_min;noise_LA_max;noise_LA01;noise_LA95
57439;Laerm;43282;47.188;8.896;2023-03-13T00:01:32;48.48;37.70;61.31;;
57439;Laerm;43282;47.188;8.896;2023-03-13T00:03:58;46.19;36.69;59.28;;
57439;Laerm;43282;47.188;8.896;2023-03-13T00:06:24;49.06;38.81;64.06;;
57439;Laerm;43282;47.188;8.896;2023-03-13T00:08:50;46.34;37.52;62.15;;
57439;Laerm;43282;47.188;8.896;2023-03-13T00:11:15;49.21;39.46;64.25;;
57439;Laerm;43282;47.188;8.896;2023-03-13T00:13:41;49.50;40.13;61.53;;
57439;Laerm;43282;47.188;8.896;2023-03-13T00:16:13;48.21;36.69;63.74;;
57439;Laerm;43282;47.188;8.896;2023-03-13T00:18:43;52.99;40.71;72.53;;
57439;Laerm;43282;47.188;8.896;2023-03-13T00:21:09;49.45;40.33;64.40;;
57439;Laerm;43282;47.188;8.896;2023-03-13T00:23:34;52.83;36.91;71.31;;
57439;Laerm;43282;47.188;8.896;2023-03-13T00:26:19;44.71;37.70;59.30;;
57439;Laerm;43282;47.188;8.896;2023-03-13T00:28:45;49.12;36.69;65.42;;
57439;Laerm;43282;47.188;8.896;2023-03-13T00:31:11;42.99;37.88;57.57;;
57439;Laerm;43282;47.188;8.896;2023-03-13T00:33:38;42.51;36.69;53.76;;
57439;Laerm;43282;47.188;8.896;2023-03-13T00:36:08;46.81;37.12;61.92;;
57439;Laerm;43282;47.188;8.896;2023-03-13T00:38:34;44.46;35.94;66.68;;
57439;Laerm;43282;47.188;8.896;2023-03-13T00:41:03;42.35;35.04;55.32;;
57439;Laerm;43282;47.188;8.896;2023-03-13T00:43:29;45.55;38.67;62.93;;
57439;Laerm;43282;47.188;8.896;2023-03-13T00:45:55;46.12;38.81;62.63;;
57439;Laerm;43282;47.188;8.896;2023-03-13T00:48:21;44.26;38.05;65.80;;
57439;Laerm;43282;47.188;8.896;2023-03-13T00:50:46;50.97;39.46;64.67;;
57439;Laerm;43282;47.188;8.896;2023-03-13T00:53:11;51.31;40.03;63.56;;
57439;Laerm;43282;47.188;8.896;2023-03-13T00:55:36;48.07;38.95;63.35;;
57439;Laerm;43282;47.188;8.896;2023-03-13T00:58:03;48.12;35.66;66.24;;
57439;Laerm;43282;47.188;8.896;2023-03-13T01:00:28;44.34;37.12;60.30;;
57439;Laerm;43282;47.188;8.896;2023-03-13T01:02:53;40.69;35.36;54.64;;
57439;Laerm;43282;47.188;8.896;2023-03-13T01:05:18;48.88;38.52;62.05;;
57439;Laerm;43282;47.188;8.896;2023-03-13T01:07:44;44.68;37.12;61.05;;
57439;Laerm;43282;47.188;8.896;2023-03-13T01:10:09;42.13;37.52;54.31;;
57439;Laerm;43282;47.188;8.896;2023-03-13T01:12:34;45.18;36.20;64.29;;
57439;Laerm;43282;47.188;8.896;2023-03-13T01:15:00;44.36;36.45;59.20;;
57439;Laerm;43282;47.188;8.896;2023-03-13T01:17:25;49.01;38.05;71.33;;
57439;Laerm;43282;47.188;8.896;2023-03-13T01:19:50;47.46;35.04;71.12;;
57439;Laerm;43282;47.188;8.896;2023-03-13T01:22:15;45.86;35.94;67.55;;
57439;Laerm;43282;47.188;8.896;2023-03-13T01:24:41;49.66;36.20;70.70;;
57439;Laerm;43282;47.188;8.896;2023-03-13T01:27:06;46.84;37.32;73.60;;
57439;Laerm;43282;47.188;8.896;2023-03-13T01:29:31;47.43;39.46;60.19;;
57439;Laerm;43282;47.188;8.896;2023-03-13T01:31:56;43.84;38.21;61.50;;
57439;Laerm;43282;47.188;8.896;2023-03-13T01:34:22;50.89;38.81;70.13;;
57439;Laerm;43282;47.188;8.896;2023-03-13T01:36:47;49.45;37.88;62.18;;
57439;Laerm;43282;47.188;8.896;2023-03-13T01:39:14;46.19;36.91;68.13;;
57439;Laerm;43282;47.188;8.896;2023-03-13T01:41:40;48.00;37.88;71.94;;
57439;Laerm;43282;47.188;8.896;2023-03-13T01:44:08;50.11;39.08;62.30;;
57439;Laerm;43282;47.188;8.896;2023-03-13T01:46:41;48.68;39.34;72.27;;
57439;Laerm;43282;47.188;8.896;2023-03-13T01:51:32;48.63;39.58;65.03;;
57439;Laerm;43282;47.188;8.896;2023-03-13T01:56:49;47.45;36.91;65.24;;
57439;Laerm;43282;47.188;8.896;2023-03-13T01:59:14;46.75;36.20;60.45;;
57439;Laerm;43282;47.188;8.896;2023-03-13T02:01:41;50.04;37.32;75.39;;
57439;Laerm;43282;47.188;8.896;2023-03-13T02:04:08;48.24;36.20;66.60;;
57439;Laerm;43282;47.188;8.896;2023-03-13T02:06:34;45.84;36.69;66.23;;
57439;Laerm;43282;47.188;8.896;2023-03-13T02:09:02;45.40;37.52;65.53;;
57439;Laerm;43282;47.188;8.896;2023-03-13T02:11:46;45.04;36.45;68.46;;
57439;Laerm;43282;47.188;8.896;2023-03-13T02:14:15;45.35;37.70;61.25;;
57439;Laerm;43282;47.188;8.896;2023-03-13T02:16:41;44.36;35.36;62.32;;
57439;Laerm;43282;47.188;8.896;2023-03-13T02:19:16;43.45;36.45;66.08;;
57439;Laerm;43282;47.188;8.896;2023-03-13T02:22:19;43.54;36.45;58.60;;
57439;Laerm;43282;47.188;8.896;2023-03-13T02:24:35;51.57;37.88;69.40;;
57439;Laerm;43282;47.188;8.896;2023-03-13T02:27:05;49.49;36.45;65.99;;
57439;Laerm;43282;47.188;8.896;2023-03-13T02:29:31;47.85;36.91;64.16;;
57439;Laerm;43282;47.188;8.896;2023-03-13T02:31:56;44.19;35.94;62.64;;
57439;Laerm;43282;47.188;8.896;2023-03-13T02:34:23;46.93;38.21;66.11;;
57439;Laerm;43282;47.188;8.896;2023-03-13T02:36:50;45.83;37.12;62.27;;
57439;Laerm;43282;47.188;8.896;2023-03-13T02:39:17;48.72;37.88;68.41;;
57439;Laerm;43282;47.188;8.896;2023-03-13T02:41:44;44.65;38.02;58.88;;
57439;Laerm;43282;47.188;8.896;2023-03-13T02:44:10;49.02;39.08;63.10;;
57439;Laerm;43282;47.188;8.896;2023-03-13T02:46:46;48.04;39.34;62.87;;
57439;Laerm;43282;47.188;8.896;2023-03-13T02:49:17;50.65;40.33;74.82;;
57439;Laerm;43282;47.188;8.896;2023-03-13T02:51:43;49.44;38.95;70.46;;
57439;Laerm;43282;47.188;8.896;2023-03-13T02:54:11;51.46;39.21;73.84;;
57439;Laerm;43282;47.188;8.896;2023-03-13T02:56:39;48.37;38.21;70.55;;
57439;Laerm;43282;47.188;8.896;2023-03-13T02:59:05;52.11;38.95;68.81;;
57439;Laerm;43282;47.188;8.896;2023-03-13T03:01:31;50.79;39.21;76.31;;
57439;Laerm;43282;47.188;8.896;2023-03-13T03:03:57;49.83;39.92;69.55;;
57439;Laerm;43282;47.188;8.896;2023-03-13T03:06:22;48.73;38.95;64.13;;
57439;Laerm;43282;47.188;8.896;2023-03-13T03:08:47;49.80;38.21;65.01;;
57439;Laerm;43282;47.188;8.896;2023-03-13T03:11:12;47.87;38.67;61.85;;
57439;Laerm;43282;47.188;8.896;2023-03-13T03:13:38;50.27;39.34;66.23;;
57439;Laerm;43282;47.188;8.896;2023-03-13T03:16:07;46.94;39.21;66.11;;
57439;Laerm;43282;47.188;8.896;2023-03-13T03:18:32;52.81;39.58;73.02;;
57439;Laerm;43282;47.188;8.896;2023-03-13T03:20:57;49.49;38.95;67.85;;
57439;Laerm;43282;47.188;8.896;2023-03-13T03:23:23;49.23;37.52;67.14;;
57439;Laerm;43282;47.188;8.896;2023-03-13T03:25:48;49.50;41.22;61.48;;
57439;Laerm;43282;47.188;8.896;2023-03-13T03:28:13;51.22;40.13;63.22;;
57439;Laerm;43282;47.188;8.896;2023-03-13T03:30:38;52.68;43.81;64.26;;
57439;Laerm;43282;47.188;8.896;2023-03-13T03:33:04;54.09;43.68;69.74;;
57439;Laerm;43282;47.188;8.896;2023-03-13T03:35:29;52.37;39.34;72.12;;
57439;Laerm;43282;47.188;8.896;2023-03-13T03:37:54;52.72;42.53;73.28;;
57439;Laerm;43282;47.188;8.896;2023-03-13T03:40:20;53.80;39.58;66.93;;
57439;Laerm;43282;47.188;8.896;2023-03-13T03:42:45;53.93;38.81;68.10;;
57439;Laerm;43282;47.188;8.896;2023-03-13T03:45:10;49.86;40.53;66.35;;
57439;Laerm;43282;47.188;8.896;2023-03-13T03:47:36;54.26;43.24;73.91;;
57439;Laerm;43282;47.188;8.896;2023-03-13T03:50:01;53.03;43.63;68.24;;
57439;Laerm;43282;47.188;8.896;2023-03-13T03:52:27;50.58;39.21;68.75;;
57439;Laerm;43282;47.188;8.896;2023-03-13T03:54:53;49.33;40.79;64.08;;
57439;Laerm;43282;47.188;8.896;2023-03-13T03:57:18;52.61;42.13;64.84;;
57439;Laerm;43282;47.188;8.896;2023-03-13T03:59:43;54.45;42.09;71.63;;
57439;Laerm;43282;47.188;8.896;2023-03-13T04:02:09;54.12;44.15;67.22;;
57439;Laerm;43282;47.188;8.896;2023-03-13T04:04:34;53.51;44.76;66.69;;
57439;Laerm;43282;47.188;8.896;2023-03-13T04:06:59;55.29;45.66;66.55;;
57439;Laerm;43282;47.188;8.896;2023-03-13T04:09:24;55.04;44.73;70.24;;
57439;Laerm;43282;47.188;8.896;2023-03-13T04:11:50;56.08;44.39;71.31;;
57439;Laerm;43282;47.188;8.896;2023-03-13T04:14:15;56.14;46.38;69.23;;
57439;Laerm;43282;47.188;8.896;2023-03-13T04:16:40;56.72;47.48;67.37;;
57439;Laerm;43282;47.188;8.896;2023-03-13T04:19:05;55.68;45.91;67.48;;
57439;Laerm;43282;47.188;8.896;2023-03-13T04:21:31;56.06;47.57;67.96;;
57439;Laerm;43282;47.188;8.896;2023-03-13T04:23:56;57.51;46.40;67.98;;
57439;Laerm;43282;47.188;8.896;2023-03-13T04:26:22;56.60;48.31;64.89;;
57439;Laerm;43282;47.188;8.896;2023-03-13T04:28:47;56.08;45.45;67.15;;
57439;Laerm;43282;47.188;8.896;2023-03-13T04:31:12;57.41;48.76;68.26;;
57439;Laerm;43282;47.188;8.896;2023-03-13T04:33:37;57.44;46.76;68.77;;
57439;Laerm;43282;47.188;8.896;2023-03-13T04:36:03;58.83;51.03;72.38;;
57439;Laerm;43282;47.188;8.896;2023-03-13T04:38:28;55.50;45.07;67.05;;
57439;Laerm;43282;47.188;8.896;2023-03-13T04:40:54;55.56;47.06;68.33;;
57439;Laerm;43282;47.188;8.896;2023-03-13T04:43:19;60.33;49.33;74.37;;
57439;Laerm;43282;47.188;8.896;2023-03-13T04:45:44;55.22;46.80;66.86;;
57439;Laerm;43282;47.188;8.896;2023-03-13T04:48:10;55.48;46.33;68.25;;
57439;Laerm;43282;47.188;8.896;2023-03-13T04:50:35;53.56;45.33;65.36;;
57439;Laerm;43282;47.188;8.896;2023-03-13T04:53:01;52.00;44.65;64.46;;
57439;Laerm;43282;47.188;8.896;2023-03-13T04:55:26;57.01;44.62;70.80;;
57439;Laerm;43282;47.188;8.896;2023-03-13T04:57:51;55.36;44.73;65.97;;
57439;Laerm;43282;47.188;8.896;2023-03-13T05:00:17;60.97;45.39;80.43;;
57439;Laerm;43282;47.188;8.896;2023-03-13T05:02:42;65.43;45.11;82.08;;
57439;Laerm;43282;47.188;8.896;2023-03-13T05:05:07;66.54;44.73;82.47;;
57439;Laerm;43282;47.188;8.896;2023-03-13T05:07:33;67.57;44.58;83.14;;
57439;Laerm;43282;47.188;8.896;2023-03-13T05:09:58;67.59;44.27;83.20;;
57439;Laerm;43282;47.188;8.896;2023-03-13T05:12:23;63.99;42.76;82.66;;
57439;Laerm;43282;47.188;8.896;2023-03-13T05:14:49;54.99;42.93;68.78;;
57439;Laerm;43282;47.188;8.896;2023-03-13T05:17:14;57.30;43.68;68.73;;
57439;Laerm;43282;47.188;8.896;2023-03-13T05:19:41;58.46;45.01;71.68;;
57439;Laerm;43282;47.188;8.896;2023-03-13T05:22:06;55.68;43.68;66.19;;
57439;Laerm;43282;47.188;8.896;2023-03-13T05:24:32;55.61;44.69;65.05;;
57439;Laerm;43282;47.188;8.896;2023-03-13T05:26:57;56.22;43.90;68.11;;
57439;Laerm;43282;47.188;8.896;2023-03-13T05:29:22;54.77;44.58;65.24;;
57439;Laerm;43282;47.188;8.896;2023-03-13T05:31:47;57.88;46.62;67.84;;
57439;Laerm;43282;47.188;8.896;2023-03-13T05:34:13;57.85;47.96;70.93;;
57439;Laerm;43282;47.188;8.896;2023-03-13T05:36:38;58.65;50.16;67.94;;
57439;Laerm;43282;47.188;8.896;2023-03-13T05:39:03;59.64;50.32;72.79;;
57439;Laerm;43282;47.188;8.896;2023-03-13T05:41:28;59.57;49.21;67.07;;
57439;Laerm;43282;47.188;8.896;2023-03-13T05:43:54;58.11;50.97;69.81;;
57439;Laerm;43282;47.188;8.896;2023-03-13T05:46:19;59.44;50.78;68.74;;
57439;Laerm;43282;47.188;8.896;2023-03-13T05:48:44;64.18;51.51;81.67;;
57439;Laerm;43282;47.188;8.896;2023-03-13T05:51:11;61.76;52.70;74.27;;
57439;Laerm;43282;47.188;8.896;2023-03-13T05:53:36;59.25;50.90;67.97;;
57439;Laerm;43282;47.188;8.896;2023-03-13T05:56:01;63.48;51.35;78.24;;
57439;Laerm;43282;47.188;8.896;2023-03-13T05:58:26;61.62;49.34;73.39;;
57439;Laerm;43282;47.188;8.896;2023-03-13T06:00:52;61.71;54.53;72.52;;
57439;Laerm;43282;47.188;8.896;2023-03-13T06:03:17;60.23;52.44;73.20;;
57439;Laerm;43282;47.188;8.896;2023-03-13T06:05:42;58.87;51.03;70.39;;
57439;Laerm;43282;47.188;8.896;2023-03-13T06:08:08;59.15;50.00;71.05;;
57439;Laerm;43282;47.188;8.896;2023-03-13T06:10:33;58.77;49.30;68.22;;
57439;Laerm;43282;47.188;8.896;2023-03-13T06:12:58;59.95;49.93;70.47;;
57439;Laerm;43282;47.188;8.896;2023-03-13T06:15:24;57.71;47.10;67.44;;
57439;Laerm;43282;47.188;8.896;2023-03-13T06:17:49;61.37;45.77;79.05;;
57439;Laerm;43282;47.188;8.896;2023-03-13T06:20:14;58.66;47.44;70.46;;
57439;Laerm;43282;47.188;8.896;2023-03-13T06:22:40;57.73;45.60;69.40;;
57439;Laerm;43282;47.188;8.896;2023-03-13T06:25:08;60.06;44.31;75.51;;
57439;Laerm;43282;47.188;8.896;2023-03-13T06:27:57;60.04;46.13;75.95;;
57439;Laerm;43282;47.188;8.896;2023-03-13T06:30:22;60.38;45.77;73.74;;
57439;Laerm;43282;47.188;8.896;2023-03-13T06:32:48;59.82;47.18;77.57;;
57439;Laerm;43282;47.188;8.896;2023-03-13T06:35:14;58.16;46.87;73.87;;
57439;Laerm;43282;47.188;8.896;2023-03-13T06:37:39;58.85;47.10;72.48;;
57439;Laerm;43282;47.188;8.896;2023-03-13T06:40:05;57.97;48.57;69.75;;
57439;Laerm;43282;47.188;8.896;2023-03-13T06:42:31;68.32;52.48;83.73;;
57439;Laerm;43282;47.188;8.896;2023-03-13T06:44:56;60.58;50.77;72.24;;
57439;Laerm;43282;47.188;8.896;2023-03-13T06:47:21;61.78;52.57;73.33;;
57439;Laerm;43282;47.188;8.896;2023-03-13T06:49:46;61.32;54.62;72.56;;
57439;Laerm;43282;47.188;8.896;2023-03-13T06:52:12;63.52;56.33;78.64;;
57439;Laerm;43282;47.188;8.896;2023-03-13T06:54:37;63.37;56.14;77.09;;
57439;Laerm;43282;47.188;8.896;2023-03-13T06:57:02;61.88;55.66;71.25;;
57439;Laerm;43282;47.188;8.896;2023-03-13T06:59:27;62.13;55.70;72.24;;
57439;Laerm;43282;47.188;8.896;2023-03-13T07:01:53;61.80;54.16;73.91;;
57439;Laerm;43282;47.188;8.896;2023-03-13T07:04:18;62.51;53.65;74.42;;
57439;Laerm;43282;47.188;8.896;2023-03-13T07:06:44;58.50;50.56;65.49;;
57439;Laerm;43282;47.188;8.896;2023-03-13T07:09:09;62.66;53.01;75.58;;
57439;Laerm;43282;47.188;8.896;2023-03-13T07:11:35;61.15;51.90;74.72;;
57439;Laerm;43282;47.188;8.896;2023-03-13T07:14:00;64.14;51.28;78.23;;
57439;Laerm;43282;47.188;8.896;2023-03-13T07:16:26;61.14;52.94;74.65;;
57439;Laerm;43282;47.188;8.896;2023-03-13T07:18:51;63.26;54.29;74.60;;
57439;Laerm;43282;47.188;8.896;2023-03-13T07:21:16;65.54;52.76;81.86;;
57439;Laerm;43282;47.188;8.896;2023-03-13T07:23:42;61.97;52.33;71.90;;
57439;Laerm;43282;47.188;8.896;2023-03-13T07:26:10;63.48;54.09;82.51;;
57439;Laerm;43282;47.188;8.896;2023-03-13T07:28:35;62.27;53.54;72.53;;
57439;Laerm;43282;47.188;8.896;2023-03-13T07:31:05;64.83;56.87;78.72;;
57439;Laerm;43282;47.188;8.896;2023-03-13T07:33:31;62.97;57.29;70.96;;
57439;Laerm;43282;47.188;8.896;2023-03-13T07:35:56;62.04;57.55;68.69;;
57439;Laerm;43282;47.188;8.896;2023-03-13T07:38:21;64.45;57.70;75.33;;
57439;Laerm;43282;47.188;8.896;2023-03-13T07:40:50;64.16;58.62;72.73;;
57439;Laerm;43282;47.188;8.896;2023-03-13T07:43:16;65.78;59.02;78.69;;
57439;Laerm;43282;47.188;8.896;2023-03-13T07:48:19;60.17;50.34;72.78;;
57439;Laerm;43282;47.188;8.896;2023-03-13T07:50:44;59.93;51.40;68.43;;
57439;Laerm;43282;47.188;8.896;2023-03-13T07:53:10;63.29;56.50;74.53;;
57439;Laerm;43282;47.188;8.896;2023-03-13T07:55:35;62.55;56.81;70.01;;
57439;Laerm;43282;47.188;8.896;2023-03-13T07:58:00;63.94;56.43;75.70;;
57439;Laerm;43282;47.188;8.896;2023-03-13T08:00:25;61.52;56.32;73.39;;
57439;Laerm;43282;47.188;8.896;2023-03-13T08:02:50;62.42;56.31;72.00;;
57439;Laerm;43282;47.188;8.896;2023-03-13T08:05:16;62.37;56.33;72.95;;
57439;Laerm;43282;47.188;8.896;2023-03-13T08:07:43;61.77;55.79;70.99;;
57439;Laerm;43282;47.188;8.896;2023-03-13T08:10:08;61.21;55.39;66.82;;
57439;Laerm;43282;47.188;8.896;2023-03-13T08:12:34;60.70;55.58;72.39;;
57439;Laerm;43282;47.188;8.896;2023-03-13T08:14:59;60.95;55.03;70.30;;
57439;Laerm;43282;47.188;8.896;2023-03-13T08:17:24;61.40;55.56;70.15;;
57439;Laerm;43282;47.188;8.896;2023-03-13T08:19:49;60.89;55.30;72.14;;
57439;Laerm;43282;47.188;8.896;2023-03-13T08:22:22;61.99;56.86;73.76;;
57439;Laerm;43282;47.188;8.896;2023-03-13T08:24:51;62.13;55.15;74.38;;
57439;Laerm;43282;47.188;8.896;2023-03-13T08:27:19;61.82;55.01;72.41;;
57439;Laerm;43282;47.188;8.896;2023-03-13T08:29:44;62.29;58.59;68.62;;
57439;Laerm;43282;47.188;8.896;2023-03-13T08:32:10;63.00;55.78;74.33;;
57439;Laerm;43282;47.188;8.896;2023-03-13T08:34:35;60.98;50.89;69.03;;
57439;Laerm;43282;47.188;8.896;2023-03-13T08:37:00;62.76;55.07;71.11;;
57439;Laerm;43282;47.188;8.896;2023-03-13T08:39:26;63.99;58.28;77.14;;
57439;Laerm;43282;47.188;8.896;2023-03-13T08:41:51;65.55;57.48;76.94;;
57439;Laerm;43282;47.188;8.896;2023-03-13T08:44:17;64.75;59.45;73.94;;
57439;Laerm;43282;47.188;8.896;2023-03-13T08:46:44;67.04;58.72;78.64;;
57439;Laerm;43282;47.188;8.896;2023-03-13T08:49:10;65.29;59.35;73.16;;
57439;Laerm;43282;47.188;8.896;2023-03-13T08:51:36;64.62;59.62;77.91;;
57439;Laerm;43282;47.188;8.896;2023-03-13T08:54:01;64.80;59.25;73.18;;
57439;Laerm;43282;47.188;8.896;2023-03-13T08:56:27;63.89;57.66;75.26;;
57439;Laerm;43282;47.188;8.896;2023-03-13T08:58:58;63.20;58.78;69.95;;
57439;Laerm;43282;47.188;8.896;2023-03-13T09:01:25;64.40;58.33;73.79;;
57439;Laerm;43282;47.188;8.896;2023-03-13T09:03:50;64.89;58.04;77.65;;
57439;Laerm;43282;47.188;8.896;2023-03-13T09:06:16;63.59;58.31;72.56;;
57439;Laerm;43282;47.188;8.896;2023-03-13T09:08:42;63.70;58.60;74.59;;
57439;Laerm;43282;47.188;8.896;2023-03-13T09:11:08;63.20;57.84;70.14;;
57439;Laerm;43282;47.188;8.896;2023-03-13T09:13:35;70.73;58.79;85.89;;
57439;Laerm;43282;47.188;8.896;2023-03-13T09:16:02;64.99;59.31;76.77;;
57439;Laerm;43282;47.188;8.896;2023-03-13T09:18:28;63.73;58.64;74.15;;
57439;Laerm;43282;47.188;8.896;2023-03-13T09:20:53;64.62;58.32;78.51;;
57439;Laerm;43282;47.188;8.896;2023-03-13T09:23:18;65.05;58.28;77.69;;
57439;Laerm;43282;47.188;8.896;2023-03-13T09:25:44;63.57;58.01;69.95;;
57439;Laerm;43282;47.188;8.896;2023-03-13T09:28:09;63.76;58.52;73.20;;
57439;Laerm;43282;47.188;8.896;2023-03-13T09:30:34;64.16;58.39;75.63;;
57439;Laerm;43282;47.188;8.896;2023-03-13T09:33:00;63.97;58.18;69.57;;
57439;Laerm;43282;47.188;8.896;2023-03-13T09:35:25;64.30;57.42;73.76;;
57439;Laerm;43282;47.188;8.896;2023-03-13T09:37:50;64.71;58.19;79.23;;
57439;Laerm;43282;47.188;8.896;2023-03-13T09:40:16;65.38;55.51;79.89;;
57439;Laerm;43282;47.188;8.896;2023-03-13T09:42:47;63.55;56.01;93.13;;
57439;Laerm;43282;47.188;8.896;2023-03-13T09:45:15;61.90;56.64;72.55;;
57439;Laerm;43282;47.188;8.896;2023-03-13T09:47:43;61.08;56.61;67.04;;
57439;Laerm;43282;47.188;8.896;2023-03-13T09:50:30;62.56;56.58;75.58;;
57439;Laerm;43282;47.188;8.896;2023-03-13T09:52:59;63.95;55.83;77.56;;
57439;Laerm;43282;47.188;8.896;2023-03-13T09:55:31;61.87;56.89;72.78;;
57439;Laerm;43282;47.188;8.896;2023-03-13T10:01:26;64.12;57.19;78.92;;
57439;Laerm;43282;47.188;8.896;2023-03-13T10:03:55;63.11;57.38;76.73;;
57439;Laerm;43282;47.188;8.896;2023-03-13T10:07:10;63.46;57.29;77.55;;
57439;Laerm;43282;47.188;8.896;2023-03-13T10:09:35;61.00;57.08;71.02;;
57439;Laerm;43282;47.188;8.896;2023-03-13T10:12:05;61.91;57.46;69.85;;
57439;Laerm;43282;47.188;8.896;2023-03-13T10:19:33;64.90;59.05;73.68;;
57439;Laerm;43282;47.188;8.896;2023-03-13T10:22:00;62.97;58.08;72.02;;
57439;Laerm;43282;47.188;8.896;2023-03-13T10:27:28;64.39;56.80;75.56;;
57439;Laerm;43282;47.188;8.896;2023-03-13T10:29:53;62.64;57.12;79.50;;
57439;Laerm;43282;47.188;8.896;2023-03-13T10:32:19;61.38;55.85;74.04;;
57439;Laerm;43282;47.188;8.896;2023-03-13T10:34:49;62.88;56.93;75.27;;
57439;Laerm;43282;47.188;8.896;2023-03-13T10:39:50;60.28;51.69;72.78;;
57439;Laerm;43282;47.188;8.896;2023-03-13T10:44:41;58.81;46.45;68.55;;
57439;Laerm;43282;47.188;8.896;2023-03-13T10:47:08;56.64;43.34;69.40;;
57439;Laerm;43282;47.188;8.896;2023-03-13T10:49:36;58.88;44.97;74.31;;
57439;Laerm;43282;47.188;8.896;2023-03-13T10:52:11;57.20;44.69;70.83;;
57439;Laerm;43282;47.188;8.896;2023-03-13T10:54:51;56.88;43.24;72.87;;
57439;Laerm;43282;47.188;8.896;2023-03-13T10:57:41;58.01;43.54;69.25;;
57439;Laerm;43282;47.188;8.896;2023-03-13T11:02:50;60.83;44.27;72.21;;
57439;Laerm;43282;47.188;8.896;2023-03-13T11:08:20;59.54;45.66;71.41;;
57439;Laerm;43282;47.188;8.896;2023-03-13T11:10:50;57.63;43.77;73.73;;
57439;Laerm;43282;47.188;8.896;2023-03-13T11:13:26;60.79;43.94;78.24;;
57439;Laerm;43282;47.188;8.896;2023-03-13T11:15:52;57.66;43.28;73.72;;
57439;Laerm;43282;47.188;8.896;2023-03-13T11:18:23;56.37;42.16;71.58;;
57439;Laerm;43282;47.188;8.896;2023-03-13T11:20:50;54.21;42.19;66.14;;
57439;Laerm;43282;47.188;8.896;2023-03-13T11:26:02;56.59;42.82;71.52;;
57439;Laerm;43282;47.188;8.896;2023-03-13T11:38:32;57.07;43.99;69.70;;
57439;Laerm;43282;47.188;8.896;2023-03-13T11:54:23;59.83;44.54;74.93;;
57439;Laerm;43282;47.188;8.896;2023-03-13T11:56:27;59.92;45.42;74.35;;
57439;Laerm;43282;47.188;8.896;2023-03-13T12:01:33;59.74;48.57;69.48;;
57439;Laerm;43282;47.188;8.896;2023-03-13T12:04:21;58.02;47.59;68.56;;
57439;Laerm;43282;47.188;8.896;2023-03-13T12:06:53;60.32;49.65;70.33;;
57439;Laerm;43282;47.188;8.896;2023-03-13T12:09:40;60.24;47.54;76.72;;
57439;Laerm;43282;47.188;8.896;2023-03-13T12:14:52;60.91;50.92;71.95;;
57439;Laerm;43282;47.188;8.896;2023-03-13T12:17:34;61.38;47.44;78.04;;
57439;Laerm;43282;47.188;8.896;2023-03-13T12:20:03;63.13;46.66;78.31;;
57439;Laerm;43282;47.188;8.896;2023-03-13T12:25:20;59.00;47.76;71.70;;
57439;Laerm;43282;47.188;8.896;2023-03-13T12:27:48;62.99;47.65;77.32;;
57439;Laerm;43282;47.188;8.896;2023-03-13T12:30:19;62.43;47.44;78.35;;
57439;Laerm;43282;47.188;8.896;2023-03-13T12:35:37;59.17;48.81;74.59;;
57439;Laerm;43282;47.188;8.896;2023-03-13T12:40:37;56.46;48.71;65.35;;
57439;Laerm;43282;47.188;8.896;2023-03-13T12:43:04;59.89;47.86;72.95;;
57439;Laerm;43282;47.188;8.896;2023-03-13T12:45:35;57.45;46.73;65.16;;
57439;Laerm;43282;47.188;8.896;2023-03-13T12:51:16;60.57;45.91;75.45;;
57439;Laerm;43282;47.188;8.896;2023-03-13T13:06:14;56.10;44.94;66.98;;
57439;Laerm;43282;47.188;8.896;2023-03-13T13:08:45;62.43;45.23;78.61;;
57439;Laerm;43282;47.188;8.896;2023-03-13T13:13:56;60.10;45.83;75.96;;
57439;Laerm;43282;47.188;8.896;2023-03-13T13:16:21;56.81;46.13;67.12;;
57439;Laerm;43282;47.188;8.896;2023-03-13T13:18:47;59.97;47.59;74.99;;
57439;Laerm;43282;47.188;8.896;2023-03-13T13:23:42;57.60;45.48;83.41;;
57439;Laerm;43282;47.188;8.896;2023-03-13T13:28:48;60.77;44.73;77.40;;
57439;Laerm;43282;47.188;8.896;2023-03-13T13:31:43;58.66;47.76;69.83;;
57439;Laerm;43282;47.188;8.896;2023-03-13T13:34:52;60.93;46.84;74.32;;
57439;Laerm;43282;47.188;8.896;2023-03-13T13:39:36;58.70;46.71;73.80;;
57439;Laerm;43282;47.188;8.896;2023-03-13T13:45:18;58.59;48.51;72.00;;
57439;Laerm;43282;47.188;8.896;2023-03-13T13:47:35;59.08;47.34;72.44;;
57439;Laerm;43282;47.188;8.896;2023-03-13T13:50:00;61.34;49.04;76.70;;
57439;Laerm;43282;47.188;8.896;2023-03-13T13:54:55;59.12;49.44;72.83;;
57439;Laerm;43282;47.188;8.896;2023-03-13T13:57:28;57.15;48.58;68.80;;
57439;Laerm;43282;47.188;8.896;2023-03-13T13:59:59;56.91;46.50;66.43;;
57439;Laerm;43282;47.188;8.896;2023-03-13T14:03:10;58.42;47.22;73.29;;
57439;Laerm;43282;47.188;8.896;2023-03-13T14:05:15;57.90;44.69;73.43;;
57439;Laerm;43282;47.188;8.896;2023-03-13T14:12:55;58.57;47.84;70.47;;
57439;Laerm;43282;47.188;8.896;2023-03-13T14:15:22;59.81;46.20;70.26;;
57439;Laerm;43282;47.188;8.896;2023-03-13T14:17:52;59.70;47.24;74.05;;
57439;Laerm;43282;47.188;8.896;2023-03-13T14:22:50;59.20;48.00;71.16;;
57439;Laerm;43282;47.188;8.896;2023-03-13T14:25:17;60.20;48.39;74.46;;
57439;Laerm;43282;47.188;8.896;2023-03-13T14:27:43;59.49;47.84;75.39;;
57439;Laerm;43282;47.188;8.896;2023-03-13T14:30:10;59.99;47.18;76.71;;
57439;Laerm;43282;47.188;8.896;2023-03-13T14:32:36;56.24;46.10;65.98;;
57439;Laerm;43282;47.188;8.896;2023-03-13T14:35:02;59.31;44.39;72.68;;
57439;Laerm;43282;47.188;8.896;2023-03-13T14:40:04;58.14;43.99;74.69;;
57439;Laerm;43282;47.188;8.896;2023-03-13T14:42:36;58.84;43.29;78.95;;
57439;Laerm;43282;47.188;8.896;2023-03-13T14:45:10;62.05;44.31;76.77;;
57439;Laerm;43282;47.188;8.896;2023-03-13T14:47:36;64.25;45.20;80.07;;
57439;Laerm;43282;47.188;8.896;2023-03-13T14:50:02;59.21;43.44;75.86;;
57439;Laerm;43282;47.188;8.896;2023-03-13T14:52:29;56.03;44.03;65.40;;
57439;Laerm;43282;47.188;8.896;2023-03-13T14:57:21;57.53;46.05;70.10;;
57439;Laerm;43282;47.188;8.896;2023-03-13T14:59:47;59.67;48.63;65.76;;
57439;Laerm;43282;47.188;8.896;2023-03-13T15:07:16;60.43;44.65;80.71;;
57439;Laerm;43282;47.188;8.896;2023-03-13T15:09:42;55.87;44.03;75.67;;
57439;Laerm;43282;47.188;8.896;2023-03-13T15:12:10;57.18;44.76;74.50;;
57439;Laerm;43282;47.188;8.896;2023-03-13T15:14:40;58.67;44.43;70.41;;
57439;Laerm;43282;47.188;8.896;2023-03-13T15:17:14;57.40;44.76;76.24;;
57439;Laerm;43282;47.188;8.896;2023-03-13T15:19:39;60.26;44.76;78.16;;
57439;Laerm;43282;47.188;8.896;2023-03-13T15:22:07;59.79;45.20;72.68;;
57439;Laerm;43282;47.188;8.896;2023-03-13T15:24:33;56.52;44.35;71.66;;
57439;Laerm;43282;47.188;8.896;2023-03-13T15:26:58;61.39;45.51;80.43;;
57439;Laerm;43282;47.188;8.896;2023-03-13T15:29:24;61.84;45.48;72.15;;
57439;Laerm;43282;47.188;8.896;2023-03-13T15:31:49;58.19;46.38;69.70;;
57439;Laerm;43282;47.188;8.896;2023-03-13T15:34:14;60.06;46.18;72.69;;
57439;Laerm;43282;47.188;8.896;2023-03-13T15:36:40;60.82;45.48;72.93;;
57439;Laerm;43282;47.188;8.896;2023-03-13T15:39:13;57.29;44.80;66.06;;
57439;Laerm;43282;47.188;8.896;2023-03-13T15:41:39;58.59;44.90;73.37;;
57439;Laerm;43282;47.188;8.896;2023-03-13T15:44:04;57.04;43.99;67.90;;